createdAt,value
2018-09-18T00:00:16.138Z,38.7
2018-09-18T00:01:07.026Z,38.7
2018-09-18T00:01:57.265Z,38.7
2018-09-18T00:02:46.783Z,38.6
2018-09-18T00:03:36.854Z,38.6
2018-09-18T00:04:27.225Z,38.6
2018-09-18T00:05:16.997Z,38.6
2018-09-18T00:06:07.347Z,38.6
2018-09-18T00:06:56.590Z,38.6
2018-09-18T00:07:47.623Z,38.6
2018-09-18T00:08:37.564Z,38.6
2018-09-18T00:09:26.747Z,38.6
2018-09-18T00:10:17.727Z,38.6
2018-09-18T00:11:07.433Z,38.6
2018-09-18T00:11:57.789Z,38.6
2018-09-18T00:12:47.867Z,38.6
2018-09-18T00:13:37.351Z,38.6
2018-09-18T00:14:27.486Z,38.6
2018-09-18T00:15:17.464Z,38.6
2018-09-18T00:16:07.591Z,38.6
2018-09-18T00:16:58.189Z,38.6
2018-09-18T00:17:47.711Z,38.5
2018-09-18T00:18:38.285Z,38.5
2018-09-18T00:19:28.068Z,38.5
2018-09-18T00:20:17.671Z,38.5
2018-09-18T00:21:08.067Z,38.5
2018-09-18T00:21:56.654Z,38.5
2018-09-18T00:22:47.820Z,38.5
2018-09-18T00:23:37.915Z,38.5
2018-09-18T00:24:28.258Z,38.5
2018-09-18T00:25:18.074Z,38.5
2018-09-18T00:26:07.866Z,38.4
2018-09-18T00:26:58.161Z,38.5
2018-09-18T00:27:48.506Z,38.4
2018-09-18T00:28:38.318Z,38.4
2018-09-18T00:29:28.888Z,38.4
2018-09-18T00:30:19.189Z,38.4
2018-09-18T00:31:09.311Z,38.4
2018-09-18T00:31:59.006Z,38.4
2018-09-18T00:32:49.106Z,38.4
2018-09-18T00:33:39.141Z,38.4
2018-09-18T00:34:28.953Z,38.4
2018-09-18T00:35:18.745Z,38.4
2018-09-18T00:36:09.071Z,38.4
2018-09-18T00:36:59.426Z,38.4
2018-09-18T00:56:33.037Z,38.3
2018-09-18T00:57:23.391Z,38.3
2018-09-18T00:58:13.414Z,38.3
2018-09-18T00:59:03.759Z,38.3
2018-09-18T00:59:53.571Z,38.3
2018-09-18T01:00:42.489Z,38.3
2018-09-18T01:01:33.943Z,38.3
2018-09-18T01:02:23.443Z,38.3
2018-09-18T01:03:13.521Z,38.3
2018-09-18T01:04:04.169Z,38.3
2018-09-18T01:04:53.648Z,38.3
2018-09-18T01:05:43.703Z,38.2
2018-09-18T01:06:34.299Z,38.3
2018-09-18T01:07:23.826Z,38.3
2018-09-18T01:08:14.170Z,38.2
2018-09-18T01:09:04.608Z,38.2
2018-09-18T01:09:54.298Z,38.2
2018-09-18T01:10:44.385Z,38.2
2018-09-18T01:11:34.385Z,38.2
2018-09-18T01:12:24.605Z,38.2
2018-09-18T01:13:14.586Z,38.2
2018-09-18T01:14:05.140Z,38.2
2018-09-18T01:14:55.009Z,38.2
2018-09-18T01:15:44.807Z,38.2
2018-09-18T01:16:35.335Z,38.2
2018-09-18T01:17:25.098Z,38.1
2018-09-18T01:18:14.940Z,38.1
2018-09-18T01:19:04.723Z,38.1
2018-09-18T01:19:54.772Z,38.1
2018-09-18T01:20:44.898Z,38.1
2018-09-18T01:21:34.870Z,38.1
2018-09-18T01:22:25.850Z,38.1
2018-09-18T01:23:15.307Z,38.1
2018-09-18T01:24:04.892Z,38.1
2018-09-18T01:24:55.272Z,38.1
2018-09-18T01:25:45.242Z,38.1
2018-09-18T01:26:35.620Z,38.1
2018-09-18T01:27:25.594Z,38.1
2018-09-18T01:28:15.756Z,38.1
2018-09-18T01:29:05.503Z,38.1
2018-09-18T01:29:55.536Z,38.1
2018-09-18T01:30:45.909Z,38.1
2018-09-18T01:31:35.667Z,38
2018-09-18T01:32:25.979Z,38
2018-09-18T01:33:16.122Z,38
2018-09-18T01:34:06.149Z,38
2018-09-18T01:34:55.374Z,38
2018-09-18T01:35:45.424Z,38
2018-09-18T01:36:36.629Z,38
2018-09-18T01:37:26.456Z,38
2018-09-18T01:38:16.174Z,38
2018-09-18T01:39:06.224Z,38
2018-09-18T01:39:56.043Z,38
2018-09-18T01:40:46.101Z,38
2018-09-18T01:41:36.985Z,38
2018-09-18T01:42:26.476Z,38
2018-09-18T01:43:16.518Z,37.9
2018-09-18T01:44:06.614Z,37.9
2018-09-18T01:44:56.936Z,38
2018-09-18T01:45:46.996Z,37.9
2018-09-18T01:46:36.821Z,37.9
2018-09-18T01:47:26.921Z,37.9
2018-09-18T01:48:16.926Z,37.9
2018-09-18T01:49:07.000Z,37.9
2018-09-18T01:49:57.380Z,37.9
2018-09-18T01:50:47.383Z,37.9
2018-09-18T01:51:37.197Z,37.9
2018-09-18T01:52:27.755Z,37.9
2018-09-18T01:53:17.565Z,37.9
2018-09-18T01:54:07.637Z,37.9
2018-09-18T01:54:57.744Z,37.9
2018-09-18T01:55:48.114Z,37.9
2018-09-18T01:56:37.833Z,37.9
2018-09-18T01:57:28.161Z,37.9
2018-09-18T01:58:18.553Z,37.9
2018-09-18T01:59:08.057Z,37.9
2018-09-18T01:59:58.112Z,37.8
2018-09-18T02:00:48.190Z,37.9
2018-09-18T02:01:37.950Z,37.9
2018-09-18T02:02:28.303Z,37.8
2018-09-18T02:03:18.599Z,37.8
2018-09-18T02:04:08.412Z,37.8
2018-09-18T02:04:58.763Z,37.8
2018-09-18T02:05:48.554Z,37.8
2018-09-18T02:06:38.325Z,37.8
2018-09-18T02:07:28.645Z,37.8
2018-09-18T02:08:18.712Z,37.8
2018-09-18T02:09:08.816Z,37.8
2018-09-18T02:09:59.232Z,37.8
2018-09-18T02:10:48.931Z,37.8
2018-09-18T02:11:38.968Z,37.8
2018-09-18T02:12:28.768Z,37.8
2018-09-18T02:13:19.387Z,37.8
2018-09-18T02:14:08.899Z,37.8
2018-09-18T02:14:59.479Z,37.8
2018-09-18T02:15:49.304Z,37.8
2018-09-18T02:16:39.630Z,37.8
2018-09-18T02:17:28.849Z,37.8
2018-09-18T02:18:19.482Z,37.8
2018-09-18T02:19:08.967Z,37.8
2018-09-18T02:19:59.302Z,37.8
2018-09-18T02:20:49.668Z,37.8
2018-09-18T02:21:39.759Z,37.8
2018-09-18T02:22:30.074Z,37.8
2018-09-18T02:23:20.059Z,37.8
2018-09-18T02:24:09.926Z,37.8
2018-09-18T02:25:00.276Z,37.8
2018-09-18T02:25:50.056Z,37.8
2018-09-18T02:26:40.103Z,37.8
2018-09-18T02:27:29.334Z,37.8
2018-09-18T02:28:20.506Z,37.8
2018-09-18T02:29:10.589Z,37.8
2018-09-18T02:30:00.361Z,37.8
2018-09-18T02:30:49.849Z,37.8
2018-09-18T02:31:40.208Z,37.8
2018-09-18T02:32:30.536Z,37.8
2018-09-18T02:33:20.730Z,37.8
2018-09-18T02:34:10.690Z,37.8
2018-09-18T02:35:00.791Z,37.8
2018-09-18T02:35:50.829Z,37.8
2018-09-18T02:36:39.983Z,37.8
2018-09-18T02:37:30.925Z,37.8
2018-09-18T02:38:20.653Z,37.8
2018-09-18T02:39:11.324Z,37.8
2018-09-18T02:40:01.456Z,37.8
2018-09-18T02:40:51.505Z,37.8
2018-09-18T02:41:41.543Z,37.7
2018-09-18T02:42:31.337Z,37.8
2018-09-18T02:43:21.712Z,37.8
2018-09-18T02:44:11.155Z,37.7
2018-09-18T02:45:01.521Z,37.7
2018-09-18T02:45:51.582Z,37.8
2018-09-18T02:46:41.639Z,37.7
2018-09-18T02:47:31.662Z,37.7
2018-09-18T02:48:22.090Z,37.8
2018-09-18T02:49:11.858Z,37.7
2018-09-18T02:50:02.185Z,37.7
2018-09-18T02:50:51.403Z,37.7
2018-09-18T02:51:41.707Z,37.7
2018-09-18T02:52:31.515Z,37.7
2018-09-18T02:53:21.567Z,37.7
2018-09-18T02:54:11.909Z,37.7
2018-09-18T02:55:01.922Z,37.7
2018-09-18T02:55:52.339Z,37.7
2018-09-18T02:56:42.867Z,37.7
2018-09-18T02:57:31.854Z,37.7
2018-09-18T02:58:22.777Z,37.7
2018-09-18T02:59:12.276Z,37.7
2018-09-18T03:00:02.600Z,37.7
2018-09-18T03:00:52.721Z,37.6
2018-09-18T03:01:43.052Z,37.7
2018-09-18T03:02:32.615Z,37.6
2018-09-18T03:03:22.601Z,37.7
2018-09-18T03:04:12.964Z,37.6
2018-09-18T03:05:02.743Z,37.6
2018-09-18T03:05:52.603Z,37.6
2018-09-18T03:06:42.683Z,37.6
2018-09-18T03:07:33.230Z,37.6
2018-09-18T03:08:22.821Z,37.6
2018-09-18T03:09:12.897Z,37.6
2018-09-18T03:10:02.884Z,37.6
2018-09-18T03:10:53.037Z,37.6
2018-09-18T03:11:42.751Z,37.6
2018-09-18T03:12:33.432Z,37.6
2018-09-18T03:13:23.155Z,37.6
2018-09-18T03:14:13.226Z,37.6
2018-09-18T03:15:03.503Z,37.6
2018-09-18T03:15:53.078Z,37.6
2018-09-18T03:16:44.193Z,37.6
2018-09-18T03:17:33.388Z,37.6
2018-09-18T03:18:24.031Z,37.6
2018-09-18T03:19:14.394Z,37.6
2018-09-18T03:20:04.157Z,37.6
2018-09-18T03:20:54.923Z,37.5
2018-09-18T03:21:44.533Z,37.5
2018-09-18T03:22:33.748Z,37.5
2018-09-18T03:23:24.729Z,37.6
2018-09-18T03:24:14.483Z,37.6
2018-09-18T03:25:03.400Z,37.5
2018-09-18T03:25:54.975Z,37.5
2018-09-18T03:26:44.660Z,37.5
2018-09-18T03:27:35.614Z,37.6
2018-09-18T03:28:25.093Z,37.5
2018-09-18T03:29:14.832Z,37.5
2018-09-18T03:30:04.615Z,37.5
2018-09-18T03:30:55.616Z,37.5
2018-09-18T03:31:45.323Z,37.5
2018-09-18T03:32:35.132Z,37.5
2018-09-18T03:33:24.373Z,37.5
2018-09-18T03:34:14.935Z,37.5
2018-09-18T03:35:05.572Z,37.5
2018-09-18T03:35:55.802Z,37.5
2018-09-18T03:36:45.113Z,37.4
2018-09-18T03:37:35.767Z,37.4
2018-09-18T03:38:25.549Z,37.5
2018-09-18T03:39:15.570Z,37.4
2018-09-18T03:40:05.385Z,37.5
2018-09-18T03:40:55.141Z,37.5
2018-09-18T03:41:44.946Z,37.5
2018-09-18T03:42:35.917Z,37.4
2018-09-18T03:43:25.932Z,37.4
2018-09-18T03:44:15.670Z,37.4
2018-09-18T03:45:06.025Z,37.4
2018-09-18T03:45:55.778Z,37.4
2018-09-18T03:46:45.867Z,37.4
2018-09-18T03:47:36.468Z,37.4
2018-09-18T03:48:26.279Z,37.4
2018-09-18T03:49:15.896Z,37.4
2018-09-18T03:50:06.391Z,37.4
2018-09-18T03:50:55.304Z,37.4
2018-09-18T03:51:47.116Z,37.4
2018-09-18T03:52:36.321Z,37.4
2018-09-18T03:53:26.901Z,37.4
2018-09-18T03:54:16.731Z,37.4
2018-09-18T03:55:06.515Z,37.4
2018-09-18T03:55:56.834Z,37.4
2018-09-18T03:56:47.661Z,37.4
2018-09-18T03:57:37.251Z,37.4
2018-09-18T03:58:27.333Z,37.4
2018-09-18T03:59:17.063Z,37.4
2018-09-18T04:00:07.423Z,37.3
2018-09-18T04:00:56.927Z,37.3
2018-09-18T04:01:46.991Z,37.3
2018-09-18T04:02:37.321Z,37.3
2018-09-18T04:03:27.725Z,37.3
2018-09-18T04:04:17.458Z,37.3
2018-09-18T04:05:07.818Z,37.3
2018-09-18T04:05:57.904Z,37.3
2018-09-18T04:06:48.037Z,37.4
2018-09-18T04:07:37.666Z,37.3
2018-09-18T04:08:27.815Z,37.3
2018-09-18T04:09:17.077Z,37.3
2018-09-18T04:10:07.435Z,37.3
2018-09-18T04:10:57.466Z,37.3
2018-09-18T04:11:47.827Z,37.3
2018-09-18T04:12:38.203Z,37.3
2018-09-18T04:13:27.385Z,37.3
2018-09-18T04:14:17.703Z,37.3
2018-09-18T04:15:07.230Z,37.3
2018-09-18T04:15:58.129Z,37.3
2018-09-18T04:16:48.674Z,37.3
2018-09-18T04:17:38.443Z,37.3
2018-09-18T04:18:27.930Z,37.3
2018-09-18T04:19:18.120Z,37.3
2018-09-18T04:20:08.385Z,37.3
2018-09-18T04:20:59.011Z,37.3
2018-09-18T04:21:49.123Z,37.3
2018-09-18T04:22:39.173Z,37.3
2018-09-18T04:23:29.782Z,37.2
2018-09-18T04:24:18.998Z,37.3
2018-09-18T04:25:09.020Z,37.2
2018-09-18T04:25:59.082Z,37.2
2018-09-18T04:26:49.194Z,37.2
2018-09-18T04:27:39.178Z,37.2
2018-09-18T04:28:29.576Z,37.2
2018-09-18T04:29:19.334Z,37.2
2018-09-18T04:30:09.117Z,37.2
2018-09-18T04:30:59.447Z,37.2
2018-09-18T04:31:49.001Z,37.2
2018-09-18T04:32:39.331Z,37.2
2018-09-18T04:33:29.355Z,37.2
2018-09-18T04:34:20.017Z,37.2
2018-09-18T04:35:09.519Z,37.2
2018-09-18T04:35:59.566Z,37.2
2018-09-18T04:36:50.212Z,37.1
2018-09-18T04:37:39.736Z,37.2
2018-09-18T04:38:29.418Z,37.1
2018-09-18T04:39:20.299Z,37.2
2018-09-18T04:40:10.131Z,37.2
2018-09-18T04:40:59.943Z,37.1
2018-09-18T04:41:50.559Z,37.1
2018-09-18T04:42:39.775Z,37.1
2018-09-18T04:43:29.810Z,37.1
2018-09-18T04:44:19.886Z,37.1
2018-09-18T04:45:10.786Z,37.1
2018-09-18T04:46:02.469Z,37.1
2018-09-18T04:46:50.118Z,37.1
2018-09-18T04:47:40.413Z,37.1
2018-09-18T04:48:31.241Z,37.1
2018-09-18T04:49:20.530Z,37.1
2018-09-18T04:50:10.890Z,37.1
2018-09-18T04:51:01.259Z,37.1
2018-09-18T04:51:51.025Z,37.1
2018-09-18T04:52:41.084Z,37.1
2018-09-18T04:53:31.986Z,37.1
2018-09-18T04:54:21.072Z,37.1
2018-09-18T04:55:12.149Z,37.1
2018-09-18T04:56:01.356Z,37.1
2018-09-18T04:56:51.708Z,37.1
2018-09-18T04:57:41.459Z,37.1
2018-09-18T04:58:31.895Z,37.1
2018-09-18T04:59:21.287Z,37.1
2018-09-18T05:00:11.105Z,37.1
2018-09-18T05:01:01.720Z,37
2018-09-18T05:01:51.831Z,37.1
2018-09-18T05:02:41.531Z,37
2018-09-18T05:03:32.154Z,37.1
2018-09-18T05:04:22.212Z,37
2018-09-18T05:05:11.522Z,37
2018-09-18T05:06:02.091Z,37
2018-09-18T05:06:52.152Z,37.1
2018-09-18T05:07:42.534Z,37.1
2018-09-18T05:25:25.610Z,36.8
2018-09-18T05:26:15.048Z,36.8
2018-09-18T05:27:04.849Z,36.8
2018-09-18T05:27:55.185Z,36.8
2018-09-18T05:28:44.695Z,36.8
2018-09-18T05:29:35.057Z,36.8
2018-09-18T05:30:25.808Z,36.8
2018-09-18T05:31:15.189Z,36.8
2018-09-18T05:32:05.237Z,36.8
2018-09-18T05:32:55.068Z,36.8
2018-09-18T05:33:46.662Z,36.8
2018-09-18T05:34:35.757Z,36.8
2018-09-18T05:35:24.951Z,36.8
2018-09-18T05:36:15.227Z,36.7
2018-09-18T05:37:05.621Z,36.8
2018-09-18T05:37:55.458Z,36.8
2018-09-18T05:38:45.791Z,36.7
2018-09-18T05:39:34.915Z,36.7
2018-09-18T05:40:26.124Z,36.7
2018-09-18T05:41:16.004Z,36.7
2018-09-18T05:42:06.873Z,36.7
2018-09-18T05:42:55.768Z,36.7
2018-09-18T05:43:46.104Z,36.8
2018-09-18T05:44:35.898Z,36.7
2018-09-18T05:45:26.583Z,36.7
2018-09-18T05:46:15.762Z,36.7
2018-09-18T05:47:06.431Z,36.7
2018-09-18T05:47:56.180Z,36.7
2018-09-18T05:48:46.248Z,36.6
2018-09-18T05:49:36.610Z,36.7
2018-09-18T05:50:26.814Z,36.7
2018-09-18T05:51:16.842Z,36.7
2018-09-18T05:52:07.117Z,36.7
2018-09-18T05:52:56.065Z,36.6
2018-09-18T05:53:46.911Z,36.7
2018-09-18T05:54:36.834Z,36.7
2018-09-18T05:55:27.283Z,36.8
2018-09-18T05:56:17.118Z,36.8
2018-09-18T05:57:07.138Z,36.8
2018-09-18T05:57:56.296Z,36.8
2018-09-18T05:58:47.505Z,36.9
2018-09-18T05:59:37.385Z,36.9
2018-09-18T06:00:27.655Z,36.9
2018-09-18T06:01:17.485Z,37
2018-09-18T06:02:08.752Z,37.1
2018-09-18T06:02:57.590Z,37.1
2018-09-18T06:03:46.832Z,37.1
2018-09-18T06:04:36.800Z,37.1
2018-09-18T06:05:27.447Z,37.1
2018-09-18T06:06:17.882Z,37.1
2018-09-18T06:07:07.874Z,37.1
2018-09-18T06:07:58.235Z,37.1
2018-09-18T06:08:47.982Z,37.1
2018-09-18T06:09:37.754Z,37.1
2018-09-18T06:10:28.522Z,37.1
2018-09-18T06:11:19.696Z,37.1
2018-09-18T06:12:08.251Z,37
2018-09-18T06:12:58.346Z,37
2018-09-18T06:13:48.343Z,37
2018-09-18T06:14:38.153Z,37
2018-09-18T06:15:28.209Z,37
2018-09-18T06:16:17.914Z,36.9
2018-09-18T06:17:08.569Z,36.9
2018-09-18T06:17:58.459Z,30.4
2018-09-18T06:18:50.607Z,31.4
2018-09-18T06:19:38.190Z,37.3
2018-09-18T06:20:29.101Z,38.7
2018-09-18T06:21:18.686Z,39
2018-09-18T06:22:09.576Z,38.9
2018-09-18T06:22:58.779Z,38.8
2018-09-18T06:23:49.393Z,38.6
2018-09-18T06:24:39.463Z,38.4
2018-09-18T06:25:29.246Z,38.1
2018-09-18T06:26:20.143Z,38
2018-09-18T06:27:09.946Z,37.9
2018-09-18T06:27:58.878Z,37.9
2018-09-18T06:28:49.765Z,37.9
2018-09-18T06:29:38.350Z,37.9
2018-09-18T06:30:29.033Z,37.9
2018-09-18T06:31:19.648Z,37.9
2018-09-18T06:32:10.612Z,37.9
2018-09-18T06:32:59.536Z,37.9
2018-09-18T06:33:49.837Z,37.9
2018-09-18T06:34:39.943Z,37.9
2018-09-18T06:35:29.962Z,38
2018-09-18T06:36:19.729Z,38
2018-09-18T06:37:10.608Z,38
2018-09-18T06:38:00.125Z,38
2018-09-18T06:38:50.178Z,38
2018-09-18T06:39:40.086Z,38
2018-09-18T06:40:30.063Z,37.9
2018-09-18T06:41:20.427Z,37.9
2018-09-18T06:42:11.276Z,37.9
2018-09-18T06:43:00.812Z,37.6
2018-09-18T06:43:50.855Z,35.4
2018-09-18T06:44:40.927Z,41.6
2018-09-18T06:45:30.727Z,43.8
2018-09-18T06:46:19.654Z,43.1
2018-09-18T06:47:10.547Z,41.9
2018-09-18T06:48:02.632Z,41.2
2018-09-18T06:48:51.266Z,40.8
2018-09-18T06:49:41.309Z,40.4
2018-09-18T06:50:30.527Z,40.1
2018-09-18T06:51:20.596Z,39.8
2018-09-18T06:52:11.570Z,39.6
2018-09-18T06:53:01.338Z,39.3
2018-09-18T06:53:50.594Z,39.1
2018-09-18T06:54:42.362Z,39
2018-09-18T06:55:31.724Z,38.9
2018-09-18T06:56:21.538Z,38.8
2018-09-18T06:57:11.064Z,38.5
2018-09-18T06:58:01.986Z,43.5
2018-09-18T06:58:52.625Z,47.3
2018-09-18T06:59:41.765Z,48.2
2018-09-18T07:00:31.865Z,47.9
2018-09-18T07:01:21.926Z,47.2
2018-09-18T07:02:11.938Z,46.8
2018-09-18T07:03:01.866Z,46.7
2018-09-18T07:03:51.814Z,47.1
2018-09-18T07:04:41.601Z,47.7
2018-09-18T07:05:32.629Z,48.1
2018-09-18T07:06:22.291Z,48.4
2018-09-18T07:07:11.820Z,48.5
2018-09-18T07:08:02.143Z,48.6
2018-09-18T07:08:52.739Z,48.8
2018-09-18T07:09:43.078Z,48.9
2018-09-18T07:10:32.021Z,49.1
2018-09-18T07:11:22.405Z,49.3
2018-09-18T07:12:13.041Z,49.6
2018-09-18T07:13:03.054Z,49.7
2018-09-18T07:13:52.877Z,49.9
2018-09-18T07:14:43.267Z,50.1
2018-09-18T07:15:32.748Z,50.2
2018-09-18T07:16:23.068Z,50.4
2018-09-18T07:17:13.097Z,50.6
2018-09-18T07:18:04.629Z,50.8
2018-09-18T07:18:53.225Z,50.9
2018-09-18T07:19:43.886Z,51.1
2018-09-18T07:20:33.650Z,51.2
2018-09-18T07:21:23.132Z,51.3
2018-09-18T07:22:13.450Z,51.5
2018-09-18T07:23:04.160Z,51.6
2018-09-18T07:23:53.130Z,51.8
2018-09-18T07:25:34.029Z,52.1
2018-09-18T07:26:23.500Z,52.3
2018-09-18T07:28:04.179Z,52.5
2018-09-18T07:28:53.979Z,52.6
2018-09-18T07:29:44.087Z,52.8
2018-09-18T07:30:34.174Z,52.9
2018-09-18T07:31:24.474Z,53
2018-09-18T07:32:14.516Z,53.1
2018-09-18T07:33:03.760Z,53.3
2018-09-18T07:33:55.906Z,53.4
2018-09-18T07:34:44.697Z,53.6
2018-09-18T07:35:33.681Z,53.7
2018-09-18T07:36:24.841Z,53.8
2018-09-18T07:37:14.919Z,54
2018-09-18T07:38:04.666Z,54.1
2018-09-18T07:38:54.191Z,54.3
2018-09-18T07:39:45.087Z,54.4
2018-09-18T07:40:34.921Z,54.5
2018-09-18T07:41:24.486Z,54.6
2018-09-18T07:42:14.524Z,54.7
2018-09-18T07:43:05.415Z,54.8
2018-09-18T07:43:54.647Z,54.9
2018-09-18T07:44:45.464Z,55.1
2018-09-18T07:45:35.257Z,55.2
2018-09-18T07:46:25.600Z,55.3
2018-09-18T07:47:14.606Z,55.4
2018-09-18T07:48:05.859Z,55.6
2018-09-18T07:48:55.916Z,55.7
2018-09-18T07:49:46.053Z,55.8
2018-09-18T07:50:35.592Z,55.9
2018-09-18T07:51:25.776Z,56.1
2018-09-18T07:52:15.941Z,56.1
2018-09-18T07:53:05.879Z,56.3
2018-09-18T07:53:55.663Z,56.4
2018-09-18T07:54:45.762Z,56.5
2018-09-18T07:55:36.117Z,56.6
2018-09-18T07:56:26.071Z,56.8
2018-09-18T07:57:16.460Z,56.9
2018-09-18T07:58:06.199Z,57
2018-09-18T07:58:56.306Z,57.1
2018-09-18T07:59:46.030Z,57.3
2018-09-18T08:00:36.055Z,57.4
2018-09-18T08:01:28.366Z,57.4
2018-09-18T08:02:16.834Z,57.6
2018-09-18T08:03:07.697Z,57.7
2018-09-18T08:03:56.759Z,57.9
2018-09-18T08:04:46.478Z,57.9
2018-09-18T08:05:36.808Z,58.1
2018-09-18T08:06:26.339Z,58.2
2018-09-18T08:07:16.603Z,58.4
2018-09-18T08:08:06.420Z,58.5
2018-09-18T08:09:47.111Z,58.7
2018-09-18T08:10:37.138Z,58.8
2018-09-18T08:11:26.741Z,58.9
2018-09-18T08:12:17.310Z,59
2018-09-18T08:13:07.101Z,59.1
2018-09-18T08:13:57.388Z,59.2
2018-09-18T08:14:47.750Z,59.3
2018-09-18T08:15:37.873Z,59.4
2018-09-18T08:16:27.292Z,59.5
2018-09-18T08:17:18.098Z,59.6
2018-09-18T08:18:08.303Z,59.8
2018-09-18T08:18:58.818Z,59.8
2018-09-18T08:19:51.118Z,59.9
2018-09-18T08:20:37.092Z,59.9
2018-09-18T08:21:28.299Z,60
2018-09-18T08:22:18.079Z,60.1
2018-09-18T08:23:08.437Z,60.1
2018-09-18T08:23:57.960Z,60.2
2018-09-18T08:24:47.697Z,60.3
2018-09-18T08:25:39.063Z,60.4
2018-09-18T08:26:28.646Z,60.5
2018-09-18T08:27:17.824Z,60.6
2018-09-18T08:28:08.780Z,60.7
2018-09-18T08:28:57.520Z,60.8
2018-09-18T08:29:48.454Z,60.9
2018-09-18T08:30:39.067Z,60.9
2018-09-18T08:31:28.723Z,61.1
2018-09-18T08:32:18.833Z,61.1
2018-09-18T08:33:09.868Z,61.2
2018-09-18T08:33:58.649Z,61.3
2018-09-18T08:34:48.673Z,61.4
2018-09-18T08:35:39.045Z,61.5
2018-09-18T08:36:28.839Z,61.6
2018-09-18T08:37:18.911Z,61.7
2018-09-18T08:38:09.525Z,61.8
2018-09-18T08:38:59.740Z,61.8
2018-09-18T08:39:49.553Z,61.9
2018-09-18T08:40:39.573Z,62
2018-09-18T08:41:29.668Z,62
2018-09-18T08:42:18.525Z,62.1
2018-09-18T08:43:09.844Z,62.2
2018-09-18T08:44:00.378Z,62.3
2018-09-18T08:44:49.910Z,62.4
2018-09-18T08:45:40.353Z,62.4
2018-09-18T08:46:30.908Z,62.6
2018-09-18T08:47:20.341Z,62.6
2018-09-18T08:48:09.771Z,62.7
2018-09-18T08:49:00.927Z,62.8
2018-09-18T08:49:49.220Z,62.8
2018-09-18T08:50:40.854Z,62.9
2018-09-18T08:51:30.948Z,62.9
2018-09-18T08:52:20.355Z,63
2018-09-18T08:53:10.901Z,63.1
2018-09-18T08:54:00.413Z,63.1
2018-09-18T08:54:50.652Z,63.3
2018-09-18T08:55:40.350Z,63.3
2018-09-18T08:56:31.457Z,63.4
2018-09-18T08:57:20.877Z,63.4
2018-09-18T08:58:10.973Z,63.6
2018-09-18T08:59:01.109Z,63.6
2018-09-18T08:59:51.229Z,63.7
2018-09-18T09:00:40.987Z,63.8
2018-09-18T09:01:31.718Z,63.8
2018-09-18T09:02:22.049Z,63.9
2018-09-18T09:03:11.523Z,64
2018-09-18T09:04:02.237Z,64.1
2018-09-18T09:04:51.780Z,64.1
2018-09-18T09:05:41.712Z,64
2018-09-18T09:06:32.503Z,64
2018-09-18T09:07:21.664Z,64.1
2018-09-18T09:08:14.593Z,64.3
2018-09-18T09:09:04.300Z,64.4
2018-09-18T09:09:51.501Z,64.5
2018-09-18T09:10:44.027Z,64.6
2018-09-18T09:11:31.991Z,64.7
2018-09-18T09:12:22.090Z,64.8
2018-09-18T09:13:11.831Z,64.9
2018-09-18T09:14:02.118Z,65
2018-09-18T09:14:53.107Z,65.1
2018-09-18T09:15:42.903Z,65.1
2018-09-18T09:16:31.890Z,65.3
2018-09-18T09:17:22.733Z,65.3
2018-09-18T09:18:14.319Z,65.4
2018-09-18T09:19:02.815Z,65.5
2018-09-18T09:19:52.594Z,65.6
2018-09-18T09:20:43.014Z,65.7
2018-09-18T09:21:33.068Z,65.8
2018-09-18T09:22:24.358Z,65.9
2018-09-18T09:23:13.745Z,66
2018-09-18T09:39:57.706Z,66.9
2018-09-18T09:40:46.381Z,66.8
2018-09-18T09:41:37.219Z,66.9
2018-09-18T09:42:27.989Z,67.1
2018-09-18T09:43:16.990Z,67.2
2018-09-18T09:44:07.174Z,67.3
2018-09-18T09:44:58.454Z,67.3
2018-09-18T09:45:47.290Z,67.3
2018-09-18T09:46:37.639Z,67.4
2018-09-18T09:47:27.742Z,67.5
2018-09-18T09:48:17.783Z,67.6
2018-09-18T09:49:07.820Z,67.6
2018-09-18T09:49:57.944Z,67.7
2018-09-18T09:50:47.113Z,67.6
2018-09-18T09:51:38.989Z,67.5
2018-09-18T09:52:26.905Z,67.4
2018-09-18T09:53:17.938Z,67.4
2018-09-18T09:54:07.991Z,67.4
2018-09-18T09:54:58.281Z,67.4
2018-09-18T09:55:48.340Z,67.5
2018-09-18T09:56:38.420Z,67.4
2018-09-18T09:57:28.468Z,67.4
2018-09-18T09:58:18.278Z,67.6
2018-09-18T09:59:08.896Z,67.9
2018-09-18T09:59:59.301Z,68.3
2018-09-18T10:00:48.728Z,68.6
2018-09-18T10:01:38.524Z,68.8
2018-09-18T10:02:28.612Z,68.9
2018-09-18T10:03:18.659Z,68.9
2018-09-18T10:04:08.131Z,69
2018-09-18T10:04:58.778Z,69
2018-09-18T10:05:48.544Z,69
2018-09-18T10:06:39.448Z,69.1
2018-09-18T10:07:29.252Z,69.1
2018-09-18T10:08:18.983Z,69
2018-09-18T10:09:08.820Z,69
2018-09-18T10:09:59.147Z,69.1
2018-09-18T10:10:50.671Z,69.1
2018-09-18T10:11:39.293Z,69.1
2018-09-18T10:12:28.823Z,69.1
2018-09-18T10:13:19.551Z,69.1
2018-09-18T10:14:09.475Z,69.1
2018-09-18T10:14:59.933Z,69.2
2018-09-18T10:15:50.213Z,69.3
2018-09-18T10:16:39.768Z,69.3
2018-09-18T10:17:30.265Z,69.3
2018-09-18T10:18:22.015Z,69.4
2018-09-18T10:19:10.134Z,69.4
2018-09-18T10:20:00.438Z,69.3
2018-09-18T10:20:49.755Z,69.1
2018-09-18T10:21:39.312Z,68.9
2018-09-18T10:22:30.676Z,68.9
2018-09-18T10:23:20.732Z,68.9
2018-09-18T10:24:10.667Z,69.1
2018-09-18T10:25:01.081Z,69
2018-09-18T10:25:51.630Z,68.9
2018-09-18T10:26:41.362Z,68.8
2018-09-18T10:27:30.676Z,68.8
2018-09-18T10:28:21.227Z,69
2018-09-18T10:29:11.534Z,69.3
2018-09-18T10:30:00.824Z,69.4
2018-09-18T10:30:51.332Z,69.5
2018-09-18T10:31:40.902Z,69.5
2018-09-18T10:32:31.756Z,69.5
2018-09-18T10:33:21.828Z,69.6
2018-09-18T10:34:11.236Z,69.8
2018-09-18T10:35:01.273Z,69.9
2018-09-18T10:35:51.279Z,70.1
2018-09-18T10:36:41.851Z,70.3
2018-09-18T10:37:32.035Z,70.3
2018-09-18T10:38:21.175Z,70.2
2018-09-18T10:39:11.857Z,70.1
2018-09-18T10:40:01.591Z,70.1
2018-09-18T10:40:52.443Z,70
2018-09-18T10:41:42.886Z,69.9
2018-09-18T10:42:32.357Z,69.8
2018-09-18T10:43:22.307Z,69.8
2018-09-18T10:44:12.506Z,69.8
2018-09-18T10:45:02.003Z,69.8
2018-09-18T10:45:52.159Z,69.9
2018-09-18T10:46:42.748Z,70
2018-09-18T10:47:32.161Z,70.3
2018-09-18T10:48:21.623Z,70.4
2018-09-18T10:49:12.717Z,70.6
2018-09-18T10:50:02.224Z,70.6
2018-09-18T10:50:51.982Z,70.6
2018-09-18T10:51:42.340Z,70.6
2018-09-18T10:52:32.448Z,70.7
2018-09-18T10:53:23.093Z,70.7
2018-09-18T10:54:13.183Z,70.7
2018-09-18T10:55:02.574Z,70.7
2018-09-18T10:55:52.749Z,70.6
2018-09-18T10:56:43.305Z,70.5
2018-09-18T10:57:33.117Z,70.4
2018-09-18T10:58:22.895Z,70.4
2018-09-18T10:59:13.428Z,70.5
2018-09-18T11:00:03.610Z,70.5
2018-09-18T11:00:53.511Z,70.6
2018-09-18T11:01:43.867Z,70.6
2018-09-18T11:02:33.887Z,70.6
2018-09-18T11:03:23.401Z,70.6
2018-09-18T11:04:13.100Z,70.7
2018-09-18T11:05:04.504Z,70.8
2018-09-18T11:05:53.692Z,70.8
2018-09-18T11:06:44.009Z,70.8
2018-09-18T11:07:34.712Z,70.8
2018-09-18T11:08:24.740Z,70.8
2018-09-18T11:09:14.862Z,70.8
2018-09-18T11:10:04.865Z,70.8
2018-09-18T11:10:54.025Z,70.9
2018-09-18T11:11:44.802Z,70.9
2018-09-18T11:12:34.667Z,70.8
2018-09-18T11:13:25.656Z,70.7
2018-09-18T11:14:18.273Z,70.6
2018-09-18T11:15:04.528Z,70.6
2018-09-18T11:15:56.763Z,70.8
2018-09-18T11:16:45.388Z,70.8
2018-09-18T11:17:34.071Z,70.8
2018-09-18T11:18:24.691Z,70.7
2018-09-18T11:19:15.419Z,70.7
2018-09-18T11:20:05.064Z,70.9
2018-09-18T11:20:55.018Z,71.1
2018-09-18T11:21:45.025Z,71.2
2018-09-18T11:22:36.063Z,71.3
2018-09-18T11:23:25.626Z,71.4
2018-09-18T11:24:15.349Z,71.4
2018-09-18T11:25:07.138Z,71.5
2018-09-18T11:25:56.088Z,71.6
2018-09-18T11:26:45.288Z,71.6
2018-09-18T11:27:35.159Z,71.7
2018-09-18T11:28:25.436Z,71.8
2018-09-18T11:29:15.723Z,71.9
2018-09-18T11:30:05.406Z,71.9
2018-09-18T11:30:55.666Z,72
2018-09-18T11:31:46.191Z,72.1
2018-09-18T11:32:36.726Z,72.1
2018-09-18T11:33:25.458Z,72.1
2018-09-18T11:34:15.746Z,72
2018-09-18T11:35:05.828Z,72
2018-09-18T11:35:56.247Z,72.1
2018-09-18T11:36:46.358Z,72.1
2018-09-18T11:37:35.551Z,72.2
2018-09-18T11:38:25.335Z,72.3
2018-09-18T11:39:16.022Z,72.3
2018-09-18T11:40:05.730Z,72.3
2018-09-18T11:40:55.798Z,72.3
2018-09-18T11:41:46.726Z,72.3
2018-09-18T11:42:36.551Z,72.4
2018-09-18T11:43:26.565Z,72.4
2018-09-18T11:44:16.642Z,72.4
2018-09-18T11:45:06.136Z,72.4
2018-09-18T11:45:59.793Z,72.3
2018-09-18T11:46:48.677Z,72.4
2018-09-18T11:47:36.885Z,72.4
2018-09-18T11:48:26.971Z,72.4
2018-09-18T11:49:16.766Z,72.4
2018-09-18T11:50:06.826Z,72.4
2018-09-18T11:50:56.929Z,72.4
2018-09-18T11:51:47.572Z,72.3
2018-09-18T11:52:37.619Z,72.3
2018-09-18T11:53:27.329Z,72.3
2018-09-18T11:54:17.847Z,72.3
2018-09-18T11:55:07.229Z,72.2
2018-09-18T11:55:57.209Z,72.2
2018-09-18T11:56:48.694Z,72.2
2018-09-18T11:57:37.154Z,72.3
2018-09-18T11:58:28.872Z,72.3
2018-09-18T11:59:17.187Z,72.3
2018-09-18T12:00:07.876Z,72.3
2018-09-18T12:00:57.360Z,72.3
2018-09-18T12:01:47.674Z,72.4
2018-09-18T12:02:38.586Z,72.4
2018-09-18T12:03:28.395Z,72.4